createdAt,value
2019-06-01T00:00:16.318Z,99236.75
2019-06-01T00:02:45.416Z,99228.97
2019-06-01T00:05:12.397Z,99232.75
2019-06-01T00:07:40.748Z,99236.48
2019-06-01T00:10:07.970Z,99242.09
2019-06-01T00:12:34.991Z,99238.34
2019-06-01T00:15:02.391Z,99235.14
2019-06-01T00:17:29.891Z,99172.95
2019-06-01T00:19:57.361Z,99232.73
2019-06-01T00:22:24.376Z,99229.79
2019-06-01T00:24:52.286Z,99232.73
2019-06-01T00:27:19.839Z,99222.01
2019-06-01T00:29:47.382Z,99227.62
2019-06-01T00:32:14.454Z,99222.01
2019-06-01T00:34:41.472Z,99197.05
2019-06-01T00:37:09.079Z,99218.52
2019-06-01T00:39:36.942Z,99216.37
2019-06-01T00:42:04.333Z,99215.01
2019-06-01T00:44:31.353Z,99187.16
2019-06-01T00:46:59.304Z,99216.87
2019-06-01T00:49:26.529Z,99206.70
2019-06-01T00:51:53.855Z,99202.40
2019-06-01T00:54:21.237Z,99208.82
2019-06-01T00:56:49.589Z,99209.91
2019-06-01T00:59:17.717Z,99205.63
2019-06-01T01:01:45.872Z,99180.98
2019-06-01T01:04:13.811Z,99209.91
2019-06-01T01:06:41.246Z,99204.00
2019-06-01T01:09:08.380Z,99205.89
2019-06-01T01:11:35.835Z,99208.83
2019-06-01T01:14:03.257Z,99217.12
2019-06-01T01:16:30.645Z,99192.20
2019-06-01T01:18:57.990Z,99182.81
2019-06-01T01:21:25.109Z,99207.73
2019-06-01T01:23:53.179Z,99196.48
2019-06-01T01:26:20.638Z,99210.93
2019-06-01T01:28:48.757Z,99210.93
2019-06-01T01:31:16.124Z,99205.31
2019-06-01T01:33:43.126Z,99205.03
2019-06-01T01:36:10.142Z,99177.96
2019-06-01T01:38:37.537Z,99207.16
2019-06-01T01:41:25.421Z,99206.10
2019-06-01T01:43:54.493Z,99186.28
2019-06-01T01:46:21.869Z,99177.70
2019-06-01T01:48:49.941Z,99206.10
2019-06-01T01:51:17.652Z,99210.91
2019-06-01T01:53:45.192Z,99192.70
2019-06-01T01:56:12.568Z,99183.60
2019-06-01T01:58:39.927Z,99201.54
2019-06-01T02:01:21.586Z,99199.94
2019-06-01T02:03:36.690Z,99202.84
2019-06-01T02:06:03.687Z,99180.34
2019-06-01T02:08:30.759Z,99197.76
2019-06-01T02:10:59.540Z,99196.98
2019-06-01T02:13:26.735Z,99201.77
2019-06-01T02:15:54.123Z,99199.62
2019-06-01T02:18:21.436Z,99194.27
2019-06-01T02:20:49.333Z,99199.88
2019-06-01T02:23:16.374Z,99198.80
2019-06-01T02:25:43.384Z,99206.30
2019-06-01T02:28:10.398Z,99198.54
2019-06-01T02:30:37.651Z,99194.01
2019-06-01T02:33:04.875Z,99191.33
2019-06-01T02:35:31.992Z,99166.09
2019-06-01T02:38:00.351Z,99183.57
2019-06-01T02:40:28.053Z,99185.95
2019-06-01T02:42:57.208Z,99193.71
2019-06-01T02:45:24.515Z,99180.54
2019-06-01T02:47:55.257Z,99192.08
2019-06-01T02:50:22.445Z,99162.56
2019-06-01T02:52:49.762Z,99191.49
2019-06-01T02:55:17.271Z,99183.47
2019-06-01T02:57:44.483Z,99193.91
2019-06-01T03:00:11.752Z,99187.73
2019-06-01T03:02:39.210Z,99190.15
2019-06-01T03:05:07.598Z,99190.15
2019-06-01T03:07:34.815Z,99192.83
2019-06-01T03:10:03.101Z,99195.23
2019-06-01T03:12:30.728Z,99177.52
2019-06-01T03:14:58.371Z,99196.02
2019-06-01T03:17:25.411Z,99200.58
2019-06-01T03:19:52.443Z,99197.36
2019-06-01T03:22:19.946Z,99172.17
2019-06-01T03:24:46.960Z,99195.75
2019-06-01T03:27:14.288Z,99169.72
2019-06-01T03:29:47.545Z,99181.27
2019-06-01T03:32:34.137Z,99181.53
2019-06-01T03:34:44.190Z,99167.83
2019-06-01T03:37:11.197Z,99197.05
2019-06-01T03:39:38.395Z,99194.89
2019-06-01T03:42:07.850Z,99182.59
2019-06-01T03:44:34.906Z,99178.80
2019-06-01T03:47:01.936Z,99190.06
2019-06-01T03:49:28.963Z,99183.64
2019-06-01T03:51:55.993Z,99193.81
2019-06-01T03:54:23.061Z,99192.73
2019-06-01T03:56:50.063Z,99166.73
2019-06-01T03:59:17.185Z,99191.92
2019-06-01T04:01:47.068Z,99168.89
2019-06-01T04:04:13.327Z,99193.29
2019-06-01T04:06:40.952Z,99191.14
2019-06-01T04:09:07.977Z,99194.89
2019-06-01T04:11:35.020Z,99190.88
2019-06-01T04:14:03.411Z,99192.73
2019-06-01T04:16:30.764Z,99188.98
2019-06-01T04:18:57.787Z,99189.77
2019-06-01T04:21:24.822Z,99193.52
2019-06-01T04:23:52.006Z,99197.25
2019-06-01T04:26:19.048Z,99198.59
2019-06-01T04:28:46.229Z,99194.58
2019-06-01T04:31:13.458Z,99196.17
2019-06-01T04:33:40.514Z,99186.78
2019-06-01T04:36:07.561Z,99189.75
2019-06-01T04:38:35.529Z,99189.80
2019-06-01T04:41:03.556Z,99187.44
2019-06-01T04:43:30.730Z,99193.34
2019-06-01T04:45:57.774Z,99190.94
2019-06-01T04:48:24.801Z,99196.58
2019-06-01T04:50:52.176Z,99176.22
2019-06-01T04:53:19.485Z,99193.16
2019-06-01T04:55:47.254Z,99199.88
2019-06-01T04:58:15.316Z,99197.20
2019-06-01T05:00:42.669Z,99198.54
2019-06-01T05:03:12.004Z,99171.18
2019-06-01T05:05:39.508Z,99200.44
2019-06-01T05:08:07.162Z,99181.16
2019-06-01T05:10:35.516Z,99196.19
2019-06-01T05:13:03.819Z,99198.61
2019-06-01T05:15:31.371Z,99187.35
2019-06-01T05:17:58.646Z,99198.08
2019-06-01T05:20:25.685Z,99176.66
2019-06-01T05:22:52.992Z,99200.25
2019-06-01T05:25:20.021Z,99173.20
2019-06-01T05:27:47.722Z,99195.98
2019-06-01T05:30:15.669Z,99197.31
2019-06-01T05:32:42.963Z,99196.53
2019-06-01T05:35:10.107Z,99198.41
2019-06-01T05:37:38.367Z,99200.01
2019-06-01T05:40:06.221Z,99196.55
2019-06-01T05:42:33.295Z,99198.14
2019-06-01T05:45:00.446Z,99204.30
2019-06-01T05:47:27.517Z,99201.07
2019-06-01T05:49:54.682Z,99199.77
2019-06-01T05:52:22.964Z,99207.00
2019-06-01T05:54:50.255Z,99200.05
2019-06-01T05:57:17.453Z,99201.67
2019-06-01T05:59:45.571Z,99197.91
2019-06-01T06:02:13.255Z,99194.97
2019-06-01T06:04:40.764Z,99191.24
2019-06-01T06:07:07.839Z,99189.62
2019-06-01T06:09:35.229Z,99195.80
2019-06-01T06:12:02.265Z,99196.60
2019-06-01T06:14:29.315Z,99198.75
2019-06-01T06:16:56.644Z,99199.81
2019-06-01T06:19:23.997Z,99201.95
2019-06-01T06:21:51.077Z,99200.06
2019-06-01T06:24:18.576Z,99196.84
2019-06-01T06:26:46.679Z,99198.20
2019-06-01T06:29:14.732Z,99193.36
2019-06-01T06:31:42.300Z,99198.19
2019-06-01T06:34:10.455Z,99196.06
2019-06-01T06:36:38.057Z,99206.77
2019-06-01T06:39:06.770Z,99200.86
2019-06-01T06:41:33.932Z,99205.16
2019-06-01T06:44:01.526Z,99210.78
2019-06-01T06:46:28.890Z,99211.30
2019-06-01T06:48:56.236Z,99205.94
2019-06-01T06:51:23.635Z,99206.51
2019-06-01T06:53:50.710Z,99207.84
2019-06-01T06:56:17.935Z,99204.34
2019-06-01T06:58:45.139Z,99205.15
2019-06-01T07:01:12.605Z,99209.42
2019-06-01T07:03:40.065Z,99208.89
2019-06-01T07:06:07.751Z,99203.25
2019-06-01T07:08:35.679Z,99204.59
2019-06-01T07:11:02.711Z,99202.42
2019-06-01T07:13:29.736Z,99209.66
2019-06-01T07:15:57.037Z,99211.77
2019-06-01T07:18:24.063Z,99210.45
2019-06-01T07:20:51.183Z,99212.57
2019-06-01T07:23:18.187Z,99218.98
2019-06-01T07:25:45.669Z,99209.88
2019-06-01T07:28:12.694Z,99209.33
2019-06-01T07:30:49.743Z,99210.66
2019-06-01T07:33:08.630Z,99204.20
2019-06-01T07:35:35.938Z,99197.49
2019-06-01T07:38:03.251Z,99199.91
2019-06-01T07:40:30.301Z,99203.39
2019-06-01T07:42:57.677Z,99203.90
2019-06-01T07:45:25.277Z,99204.41
2019-06-01T07:47:53.239Z,99203.86
2019-06-01T07:50:20.254Z,99203.58
2019-06-01T07:52:47.324Z,99203.84
2019-06-01T07:55:14.346Z,99206.23
2019-06-01T07:57:43.335Z,99204.05
2019-06-01T08:00:11.027Z,99205.65
2019-06-01T08:02:38.054Z,99204.03
2019-06-01T08:05:05.555Z,99197.84
2019-06-01T08:07:33.422Z,99201.84
2019-06-01T08:10:00.412Z,99201.28
2019-06-01T08:12:29.546Z,99198.05
2019-06-01T08:14:57.403Z,99195.59
2019-06-01T08:17:25.886Z,99192.88
2019-06-01T08:19:53.332Z,99190.18
2019-06-01T08:22:20.425Z,99196.09
2019-06-01T08:24:48.155Z,99194.50
2019-06-01T08:27:15.223Z,99189.88
2019-06-01T08:29:43.300Z,99187.45
2019-06-01T08:32:10.349Z,99182.86
2019-06-01T08:34:37.709Z,99191.66
2019-06-01T08:37:05.130Z,99186.00
2019-06-01T08:39:34.067Z,99183.31
2019-06-01T08:42:01.440Z,99180.33
2019-06-01T08:44:29.608Z,99179.20
2019-06-01T08:46:56.786Z,99180.02
2019-06-01T08:49:24.114Z,99168.97
2019-06-01T08:51:51.910Z,99176.80
2019-06-01T08:54:18.939Z,99169.89
2019-06-01T08:56:46.639Z,99175.48
2019-06-01T08:59:14.323Z,99172.27
2019-06-01T09:01:41.718Z,99107.84
2019-06-01T09:04:09.395Z,99168.02
2019-06-01T09:06:37.276Z,99168.80
2019-06-01T09:09:11.779Z,99165.24
2019-06-01T09:11:39.310Z,99160.59
2019-06-01T09:14:07.718Z,99153.31
2019-06-01T09:16:35.979Z,99153.53
2019-06-01T09:19:03.335Z,99155.13
2019-06-01T09:21:31.572Z,99150.53
2019-06-01T09:23:58.929Z,99153.50
2019-06-01T09:26:27.695Z,99152.93
2019-06-01T09:28:55.534Z,99156.37
2019-06-01T09:31:22.879Z,99152.62
2019-06-01T09:33:49.963Z,99149.09
2019-06-01T09:36:17.006Z,99148.30
2019-06-01T09:38:44.782Z,99146.95
2019-06-01T09:41:12.880Z,99147.48
2019-06-01T09:43:39.992Z,99149.36
2019-06-01T09:46:07.117Z,99150.14
2019-06-01T09:48:35.560Z,99146.64
2019-06-01T09:51:03.104Z,99147.41
2019-06-01T09:53:32.449Z,99150.64
2019-06-01T09:56:00.045Z,99150.36
2019-06-01T09:58:28.174Z,99150.88
2019-06-01T10:00:55.948Z,99142.81
2019-06-01T10:03:22.985Z,99139.31
2019-06-01T10:06:01.595Z,99150.84
2019-06-01T10:08:20.017Z,99143.06
2019-06-01T10:10:48.735Z,99138.70
2019-06-01T10:13:16.029Z,99140.30
2019-06-01T10:15:43.779Z,99136.80
2019-06-01T10:18:11.005Z,99131.95
2019-06-01T10:20:39.170Z,99126.45
2019-06-01T10:23:07.093Z,99128.33
2019-06-01T10:25:34.560Z,99124.54
2019-06-01T10:28:01.965Z,99126.87
2019-06-01T10:30:28.976Z,99128.98
2019-06-01T10:32:56.083Z,99124.09
2019-06-01T10:35:23.096Z,99127.84
2019-06-01T10:37:50.108Z,99121.97
2019-06-01T10:40:17.802Z,99115.53
2019-06-01T10:42:45.870Z,99121.16
2019-06-01T10:45:13.228Z,99112.84
2019-06-01T10:47:40.260Z,99114.95
2019-06-01T10:50:07.779Z,99112.27
2019-06-01T10:52:36.106Z,99110.06
2019-06-01T10:55:03.968Z,99105.83
2019-06-01T10:57:32.269Z,99106.89
2019-06-01T10:59:59.438Z,99102.53
2019-06-01T11:02:26.491Z,99106.80
2019-06-01T11:04:54.407Z,99096.29
2019-06-01T11:07:21.439Z,99101.66
2019-06-01T11:09:48.456Z,99093.02
2019-06-01T11:12:15.470Z,99090.61
2019-06-01T11:14:43.332Z,99095.98
2019-06-01T11:17:10.649Z,99094.07
2019-06-01T11:19:37.664Z,99075.10
2019-06-01T11:22:04.681Z,99088.69
2019-06-01T11:24:33.257Z,99080.14
2019-06-01T11:27:00.691Z,99078.50
2019-06-01T11:29:28.051Z,99069.67
2019-06-01T11:31:55.099Z,99056.60
2019-06-01T11:34:22.145Z,99072.60
2019-06-01T11:37:04.238Z,99054.72
2019-06-01T11:39:18.170Z,99077.16
2019-06-01T11:41:46.410Z,99072.02
2019-06-01T11:44:13.437Z,99063.95
2019-06-01T11:46:41.127Z,98973.52
2019-06-01T11:49:08.536Z,99056.68
2019-06-01T11:51:36.881Z,99056.16
2019-06-01T11:54:04.208Z,99054.81
2019-06-01T11:56:31.260Z,99037.67
2019-06-01T11:58:58.604Z,99049.68
2019-06-01T12:01:26.313Z,99048.61
2019-06-01T12:03:53.671Z,99041.80
2019-06-01T12:06:21.339Z,99039.96
2019-06-01T12:08:49.423Z,99041.55
2019-06-01T12:11:17.073Z,99015.28
2019-06-01T12:13:44.559Z,99032.61
2019-06-01T12:16:12.016Z,99030.50
2019-06-01T12:18:40.626Z,99028.62
2019-06-01T12:21:07.842Z,99023.88
2019-06-01T12:23:35.392Z,99008.80
2019-06-01T12:26:03.384Z,99006.70
2019-06-01T12:28:30.579Z,99022.13
2019-06-01T12:30:57.636Z,99018.34
2019-06-01T12:33:24.932Z,98992.41
2019-06-01T12:35:52.655Z,99008.34
2019-06-01T12:38:19.735Z,99007.24
2019-06-01T12:40:47.421Z,99008.59
2019-06-01T12:43:14.546Z,99007.23
2019-06-01T12:45:43.678Z,99002.37
2019-06-01T12:48:10.878Z,98989.89
2019-06-01T12:50:37.926Z,98997.05
2019-06-01T12:53:05.250Z,98997.58
2019-06-01T12:55:32.720Z,98997.00
2019-06-01T12:57:59.816Z,98988.69
2019-06-01T13:00:27.236Z,98977.98
2019-06-01T13:03:03.407Z,98991.08
2019-06-01T13:05:23.513Z,98982.20
2019-06-01T13:08:00.716Z,98984.08
2019-06-01T13:10:20.142Z,98983.30
2019-06-01T13:12:49.285Z,98982.73
2019-06-01T13:15:17.184Z,98969.62
2019-06-01T13:17:45.250Z,98975.98
2019-06-01T13:20:16.013Z,98968.41
2019-06-01T13:22:43.568Z,98972.44
2019-06-01T13:25:11.094Z,98968.41
2019-06-01T13:27:40.783Z,98952.66
2019-06-01T13:30:08.092Z,98947.28
2019-06-01T13:32:35.399Z,98961.67
2019-06-01T13:35:03.070Z,98958.16
2019-06-01T13:37:30.132Z,98951.72
2019-06-01T13:39:58.426Z,98949.84
2019-06-01T13:42:25.667Z,98954.12
2019-06-01T13:44:53.634Z,98930.36
2019-06-01T13:47:21.506Z,98944.70
2019-06-01T13:49:50.109Z,98940.42
2019-06-01T13:52:17.247Z,98943.84
2019-06-01T13:54:46.420Z,98940.95
2019-06-01T13:57:15.118Z,98924.13
2019-06-01T13:59:42.447Z,98938.21
2019-06-01T14:02:10.610Z,98935.04
2019-06-01T14:04:38.194Z,98933.37
2019-06-01T14:07:05.398Z,98929.31
2019-06-01T14:09:32.799Z,98928.72
2019-06-01T14:11:59.829Z,98922.31
2019-06-01T14:14:26.916Z,98924.34
2019-06-01T14:16:55.672Z,98916.51
2019-06-01T14:19:23.141Z,98916.75
2019-06-01T14:21:50.851Z,98908.67
2019-06-01T14:24:19.114Z,98909.19
2019-06-01T14:26:47.955Z,98904.39
2019-06-01T14:29:15.153Z,98899.98
2019-06-01T14:31:42.609Z,98896.27
2019-06-01T14:34:09.641Z,98890.59
2019-06-01T14:36:36.656Z,98891.45
2019-06-01T14:39:05.991Z,98885.80
2019-06-01T14:41:33.024Z,98901.00
2019-06-01T14:44:00.035Z,98893.14
2019-06-01T14:46:27.076Z,98887.25
2019-06-01T14:48:55.854Z,98885.55
2019-06-01T14:51:23.209Z,98884.50
2019-06-01T14:53:51.653Z,98879.69
2019-06-01T14:56:18.893Z,98880.47
2019-06-01T14:58:46.309Z,98883.80
2019-06-01T15:01:28.916Z,98878.94
2019-06-01T15:03:43.785Z,98866.82
2019-06-01T15:06:10.858Z,98872.34
2019-06-01T15:08:38.855Z,98870.59
2019-06-01T15:11:06.066Z,98872.09
2019-06-01T15:13:33.104Z,98873.84
2019-06-01T15:16:00.140Z,98875.19
2019-06-01T15:18:27.490Z,98875.70
2019-06-01T15:20:55.768Z,98870.20
2019-06-01T15:23:23.322Z,98868.92
2019-06-01T15:25:50.741Z,98863.83
2019-06-01T15:28:19.670Z,98859.50
2019-06-01T15:30:46.856Z,98856.33
2019-06-01T15:33:14.434Z,98859.55
2019-06-01T15:35:42.134Z,98859.55
2019-06-01T15:38:10.758Z,98862.19
2019-06-01T15:40:38.554Z,98857.80
2019-06-01T15:43:05.595Z,98856.91
2019-06-01T15:45:32.693Z,98858.91
2019-06-01T15:47:59.898Z,98848.67
2019-06-01T15:50:27.158Z,98848.43
2019-06-01T15:52:55.316Z,98848.05
2019-06-01T15:55:22.809Z,98846.38
2019-06-01T15:57:49.893Z,98840.96
2019-06-01T16:00:17.195Z,98841.80
2019-06-01T16:02:44.383Z,98842.34
2019-06-01T16:05:11.531Z,98837.13
2019-06-01T16:07:40.081Z,98837.66
2019-06-01T16:10:08.635Z,98835.51
2019-06-01T16:12:36.030Z,98837.15
2019-06-01T16:15:04.422Z,98837.91
2019-06-01T16:17:31.791Z,98830.94
2019-06-01T16:20:00.029Z,98828.75
2019-06-01T16:22:27.416Z,98824.80
2019-06-01T16:24:54.485Z,98823.61
2019-06-01T16:27:21.821Z,98828.75
2019-06-01T16:29:48.969Z,98832.20
2019-06-01T16:32:16.019Z,98825.46
2019-06-01T16:34:43.687Z,98821.06
2019-06-01T16:37:10.805Z,98820.80
2019-06-01T16:39:37.935Z,98819.95
2019-06-01T16:42:06.203Z,98819.91
2019-06-01T16:44:33.439Z,98815.38
2019-06-01T16:47:02.850Z,98816.11
2019-06-01T16:49:31.250Z,98808.53
2019-06-01T16:51:59.116Z,98811.52
2019-06-01T16:54:26.370Z,98811.55
2019-06-01T16:56:53.443Z,98805.12
2019-06-01T16:59:22.423Z,98806.02
2019-06-01T17:01:49.503Z,98807.69
2019-06-01T17:04:16.602Z,98804.30
2019-06-01T17:06:43.869Z,98800.12
2019-06-01T17:09:10.955Z,98798.91
2019-06-01T17:11:37.998Z,98801.16
2019-06-01T17:14:05.282Z,98808.41
2019-06-01T17:16:32.596Z,98805.59
2019-06-01T17:19:00.993Z,98804.23
2019-06-01T17:21:28.186Z,98806.94
2019-06-01T17:23:56.044Z,98804.39
2019-06-01T17:26:23.228Z,98805.11
2019-06-01T17:28:50.355Z,98799.52
2019-06-01T17:31:17.382Z,98801.75
2019-06-01T17:33:44.393Z,98807.38
2019-06-01T17:36:11.431Z,98796.00
2019-06-01T17:38:39.559Z,98804.08
2019-06-01T17:41:07.040Z,98802.74
2019-06-01T17:43:35.150Z,98794.80
2019-06-01T17:46:02.761Z,98802.64
2019-06-01T17:48:30.180Z,98798.73
2019-06-01T17:50:57.923Z,98797.39
2019-06-01T17:53:26.536Z,98798.60
2019-06-01T17:55:54.401Z,98797.86
2019-06-01T17:58:21.759Z,98797.05
2019-06-01T18:00:49.141Z,98793.98
2019-06-01T18:03:16.550Z,98797.95
2019-06-01T18:05:43.983Z,98796.98
2019-06-01T18:08:12.597Z,98803.58
2019-06-01T18:10:53.092Z,98800.78
2019-06-01T18:13:10.552Z,98802.13
2019-06-01T18:15:38.081Z,98798.48
2019-06-01T18:18:06.509Z,98798.91
2019-06-01T18:20:33.823Z,98798.38
2019-06-01T18:23:02.274Z,98796.77
2019-06-01T18:25:30.100Z,98792.42
2019-06-01T18:27:57.593Z,98795.41
2019-06-01T18:30:25.761Z,98790.33
2019-06-01T18:32:55.452Z,98796.31
2019-06-01T18:35:22.838Z,98793.75
2019-06-01T18:37:50.173Z,98794.95
2019-06-01T18:40:18.300Z,98792.86
2019-06-01T18:42:45.524Z,98793.55
2019-06-01T18:45:13.857Z,98791.98
2019-06-01T18:47:41.104Z,98795.84
2019-06-01T18:50:09.894Z,98789.05
2019-06-01T18:52:38.097Z,98787.14
2019-06-01T18:55:06.449Z,98791.84
2019-06-01T18:57:33.906Z,98787.34
2019-06-01T19:00:01.263Z,98786.63
2019-06-01T19:02:29.438Z,98797.13
2019-06-01T19:04:56.729Z,98792.61
2019-06-01T19:07:23.955Z,98788.81
2019-06-01T19:09:51.029Z,98794.20
2019-06-01T19:12:19.371Z,98795.55
2019-06-01T19:14:46.452Z,98796.34
2019-06-01T19:17:14.425Z,98795.90
2019-06-01T19:19:42.478Z,98793.64
2019-06-01T19:22:10.422Z,98797.69
2019-06-01T19:24:37.856Z,98801.48
2019-06-01T19:27:04.955Z,98800.22
2019-06-01T19:29:32.125Z,98802.16
2019-06-01T19:32:01.438Z,98810.80
2019-06-01T19:34:29.150Z,98804.44
2019-06-01T19:36:56.361Z,98807.17
2019-06-01T19:39:23.462Z,98812.09
2019-06-01T19:41:50.943Z,98814.20
2019-06-01T19:44:18.230Z,98812.09
2019-06-01T19:46:45.717Z,98815.12
2019-06-01T19:49:13.653Z,98815.81
2019-06-01T19:51:42.336Z,98817.64
2019-06-01T19:54:10.796Z,98814.25
2019-06-01T19:56:38.211Z,98823.12
2019-06-01T19:59:05.550Z,98827.44
2019-06-01T20:01:33.550Z,98828.31
2019-06-01T20:04:02.532Z,98830.00
2019-06-01T20:06:29.737Z,98825.97
2019-06-01T20:08:56.815Z,98832.45
2019-06-01T20:11:24.340Z,98832.27
2019-06-01T20:13:51.437Z,98827.92
2019-06-01T20:16:20.220Z,98815.22
2019-06-01T20:18:48.524Z,98824.32
2019-06-01T20:21:15.936Z,98833.45
2019-06-01T20:23:43.182Z,98830.77
2019-06-01T20:26:11.251Z,98841.02
2019-06-01T20:28:38.422Z,98840.79
2019-06-01T20:31:05.416Z,98841.08
2019-06-01T20:33:32.492Z,98840.84
2019-06-01T20:35:59.744Z,98838.73
2019-06-01T20:38:27.045Z,98839.55
2019-06-01T20:40:54.159Z,98840.16
2019-06-01T20:43:21.176Z,98846.83
2019-06-01T20:45:48.218Z,98840.02
2019-06-01T20:48:16.825Z,98842.08
2019-06-01T20:50:44.175Z,98840.44
2019-06-01T20:53:12.725Z,98843.04
2019-06-01T20:55:40.065Z,98849.22
2019-06-01T20:58:07.098Z,98845.73
2019-06-01T21:00:34.857Z,98841.12
2019-06-01T21:03:02.682Z,98839.77
2019-06-01T21:05:30.088Z,98842.70
2019-06-01T21:07:58.028Z,98846.70
2019-06-01T21:10:26.011Z,98850.98
2019-06-01T21:12:53.130Z,98848.30
2019-06-01T21:15:21.327Z,98845.90
2019-06-01T21:17:50.133Z,98839.23
2019-06-01T21:20:24.970Z,98840.81
2019-06-01T21:22:47.670Z,98845.13
2019-06-01T21:25:16.675Z,98848.05
2019-06-01T21:27:46.220Z,98853.18
2019-06-01T21:30:16.102Z,98847.19
2019-06-01T21:32:43.353Z,98846.46
2019-06-01T21:35:10.387Z,98849.39
2019-06-01T21:37:37.474Z,98852.66
2019-06-01T21:40:05.064Z,98848.39
2019-06-01T21:42:32.151Z,98854.31
2019-06-01T21:44:59.214Z,98850.86
2019-06-01T21:47:26.255Z,98845.23
2019-06-01T21:49:53.407Z,98849.56
2019-06-01T21:52:20.662Z,98849.38
2019-06-01T21:54:47.712Z,98845.11
2019-06-01T21:57:16.092Z,98847.03
2019-06-01T21:59:43.348Z,98845.25
2019-06-01T22:02:11.771Z,98840.16
2019-06-01T22:04:38.797Z,98839.88
2019-06-01T22:07:06.181Z,98841.80
2019-06-01T22:09:34.241Z,98842.17
2019-06-01T22:12:01.587Z,98841.69
2019-06-01T22:14:29.789Z,98844.14
2019-06-01T22:16:57.864Z,98838.81
2019-06-01T22:19:25.911Z,98847.45
2019-06-01T22:21:53.801Z,98850.42
2019-06-01T22:24:21.845Z,98839.72
2019-06-01T22:26:48.874Z,98845.66
2019-06-01T22:29:16.247Z,98838.14
2019-06-01T22:31:43.300Z,98836.05
2019-06-01T22:34:10.391Z,98834.96
2019-06-01T22:36:37.609Z,98837.85
2019-06-01T22:39:07.016Z,98834.42
2019-06-01T22:41:34.679Z,98837.66
2019-06-01T22:44:01.741Z,98837.45
2019-06-01T22:46:29.135Z,98832.58
2019-06-01T22:48:56.189Z,98828.30
2019-06-01T22:51:24.978Z,98832.12
2019-06-01T22:53:52.508Z,98834.80
2019-06-01T22:56:19.545Z,98834.00
2019-06-01T22:58:46.641Z,98832.13
2019-06-01T23:01:14.209Z,98827.34
2019-06-01T23:03:42.652Z,98830.02
2019-06-01T23:06:10.262Z,98827.62
2019-06-01T23:08:37.704Z,98825.22
2019-06-01T23:11:04.744Z,98826.87
2019-06-01T23:13:32.388Z,98822.86
2019-06-01T23:15:59.640Z,98821.27
2019-06-01T23:18:28.009Z,98822.09
2019-06-01T23:20:55.299Z,98823.43
2019-06-01T23:23:23.888Z,98816.48
2019-06-01T23:25:51.160Z,98817.28
2019-06-01T23:28:18.248Z,98817.01
2019-06-01T23:30:45.573Z,98815.70
2019-06-01T23:33:13.125Z,98817.01
2019-06-01T23:35:40.748Z,98817.81
2019-06-01T23:38:08.116Z,98814.89
2019-06-01T23:40:36.578Z,98811.92
2019-06-01T23:43:03.755Z,98809.84
2019-06-01T23:45:32.995Z,98802.08
2019-06-01T23:48:02.185Z,98805.33
2019-06-01T23:50:29.681Z,98798.34
2019-06-01T23:53:10.438Z,98798.91
2019-06-01T23:55:25.911Z,98799.44
2019-06-01T23:57:52.922Z,98790.08
